Flight Track Log - Related Links

Times and Time Zones

All times are in EDT time to prevent confusion due to time zone crossing. See the UAL326 flight status page for this flight to view local times or setup timezone preferences in your user account.

Time Position Orientation Groundspeed Altitude Reporting Facility
EDT Latitude Longitude Course Direction KTS MPH feet Rate Location/Type
Fri 06:06:48 PM 38.9167 -77.4500 270° West 178 205 1,800  Level Potomac TRACON
Fri 06:07:48 PM 38.8667 -77.5000 218° Southwest 216 249 3,500 2,095 Climbing Potomac TRACON
Fri 06:08:54 PM 38.8167 -77.5500 218° Southwest 248 285 6,200 2,400 Climbing Potomac TRACON
Fri 06:09:00 PM 38.8719 -77.8753 261° West  Level FlightAware Approximate
Fri 06:10:00 PM 38.8958 -78.0162 288° West  Level FlightAware Approximate
Fri 06:10:23 PM 38.7706 -77.6606 242° Southwest 260 299 9,700  Level Washington Center
Fri 06:11:00 PM 38.9311 -78.1576 288° West  Level FlightAware Approximate
Fri 06:11:21 PM 38.7836 -77.7542 280° West 250 288 11,900  Level Washington Center
Fri 06:12:00 PM 38.9500 -78.2993 270° West  Level FlightAware Approximate
Fri 06:12:22 PM 38.8172 -77.8431 296° West 256 295 13,600  Level Washington Center
Fri 06:13:22 PM 38.8531 -77.9347 297° West 275 316 15,700 2,066 Climbing Washington Center
Fri 06:14:24 PM 38.8908 -78.0319 297° West 288 331 17,800 1,966 Climbing Washington Center
Fri 06:15:21 PM 38.9283 -78.1319 296° West 304 350 19,600 1,881 Climbing Washington Center
Fri 06:16:22 PM 38.9594 -78.2372 291° West 311 358 21,500 1,835 Climbing Washington Center
Fri 06:17:22 PM 38.9486 -78.3489 263° West 305 351 23,300 1,686 Climbing Washington Center
Fri 06:18:23 PM 38.9439 -78.4633 267° West 313 360 24,900 1,388 Climbing Washington Center
Fri 06:19:23 PM 38.9703 -78.5714 287° West 320 368 26,100 1,220 Climbing Washington Center
Fri 06:20:21 PM 39.0008 -78.6875 289° West 325 374 27,300 1,210 Climbing Washington Center
Fri 06:21:22 PM 39.0039 -78.8103 272° West 332 382 28,500 1,140 Climbing Washington Center
Fri 06:22:22 PM 39.0067 -78.9308 272° West 338 389 29,600 1,109 Climbing Washington Center
Fri 06:23:21 PM 39.0094 -79.0539 272° West 345 397 30,700 1,000 Climbing Washington Center
Fri 06:24:22 PM 39.0100 -79.1819 270° West 352 405 31,600 645 Climbing Washington Center
Fri 06:25:22 PM 39.0103 -79.3103 270° West 352 405 32,000 198 Climbing Washington Center
Fri 06:26:23 PM 39.0100 -79.4464 270° West 367 422 32,000  Level Washington Center
Fri 06:27:22 PM 39.0094 -79.5961 270° West 394 453 32,000  Level Washington Center
Fri 06:28:22 PM 39.0106 -79.7483 271° West 416 479 32,000  Level Washington Center
Fri 06:29:23 PM 39.0072 -79.9006 268° West 426 490 32,000  Level Washington Center
Fri 06:30:21 PM 39.0072 -80.0661 270° West 426 490 32,000  Level Washington Center
Fri 06:31:03 PM 39.0053 -80.1369 268° West 423 487 32,000  Level Indianapolis Center
Fri 06:32:04 PM 39.0075 -80.3156 271° West 417 480 32,000  Level Indianapolis Center
Fri 06:33:06 PM 39.0111 -80.4656 272° West 420 483 32,000  Level Indianapolis Center
Fri 06:34:08 PM 39.0233 -80.6133 276° West 429 494 32,000  Level Indianapolis Center
Fri 06:35:10 PM 39.0739 -80.7528 295° West 431 496 32,000  Level Indianapolis Center
Fri 06:36:12 PM 39.1264 -80.8944 296° West 440 506 32,000  Level Indianapolis Center
Fri 06:37:14 PM 39.1803 -81.0347 296° West 440 506 32,000  Level Indianapolis Center
Fri 06:38:16 PM 39.2467 -81.2050 297° West 445 512 32,000  Level Indianapolis Center
Fri 06:39:18 PM 39.3011 -81.3467 296° West 446 513 32,000  Level Indianapolis Center
Fri 06:40:20 PM 39.3556 -81.4894 296° West 446 513 32,000  Level Indianapolis Center
Fri 06:41:22 PM 39.4106 -81.6342 296° West 449 517 32,000  Level Indianapolis Center
Fri 06:42:24 PM 39.4656 -81.7794 296° West 451 519 32,000  Level Indianapolis Center
Fri 06:43:26 PM 39.5308 -81.9522 296° West 448 516 32,000  Level Indianapolis Center
Fri 06:44:28 PM 39.5853 -82.0986 296° West 451 519 32,000 -48 Level Indianapolis Center
Fri 06:45:30 PM 39.6425 -82.2514 296° West 450 518 31,900  Descending Indianapolis Center
Fri 06:46:32 PM 39.6972 -82.4014 295° West 457 526 32,000 48 Climbing Indianapolis Center
Fri 06:47:34 PM 39.7531 -82.5508 296° West 455 524 32,000  Level Indianapolis Center
Fri 06:48:36 PM 39.8072 -82.7014 295° West 456 525 32,000  Level Indianapolis Center
Fri 06:49:38 PM 39.8633 -82.8514 296° West 460 529 32,000  Level Indianapolis Center
Fri 06:50:40 PM 39.9167 -83.0017 295° West 456 525 32,000  Level Indianapolis Center
Fri 06:51:42 PM 39.9800 -83.1772 295° West 458 527 32,000  Level Indianapolis Center
Fri 06:52:43 PM 40.0342 -83.3269 295° West 459 528 32,000  Level Indianapolis Center
Fri 06:53:45 PM 40.0875 -83.4769 295° West 459 528 32,000  Level Indianapolis Center
Fri 06:54:47 PM 40.1411 -83.6267 295° West 457 526 32,000  Level Indianapolis Center
Fri 06:55:49 PM 40.1942 -83.7781 295° West 457 526 32,000  Level Indianapolis Center
Fri 06:56:51 PM 40.2567 -83.9544 295° West 457 526 32,000 387 Level Indianapolis Center
Fri 06:57:53 PM 40.2886 -84.1125 285° West 448 516 32,800 484 Climbing Indianapolis Center
Fri 06:58:55 PM 40.3089 -84.2711 280° West 438 504 33,000 97 Climbing Indianapolis Center
Fri 06:59:57 PM 40.3300 -84.4292 280° West 438 504 33,000  Level Indianapolis Center
Fri 07:00:59 PM 40.3483 -84.5881 279° West 439 505 33,000 484 Level Indianapolis Center
Fri 07:02:01 PM 40.3683 -84.7456 280° West 437 503 34,000 488 Climbing Indianapolis Center
Fri 07:03:02 PM 40.4167 -84.8956 293° West 444 511 34,000  Level Indianapolis Center
Fri 07:04:04 PM 40.4753 -85.0633 295° West 443 510 34,000  Level Indianapolis Center
Fri 07:04:43 PM 40.5053 -85.1478 295° West 440 506 34,000  Level Chicago Center
Fri 07:05:45 PM 40.5550 -85.2925 294° West 438 504 34,000  Level Chicago Center
Fri 07:06:47 PM 40.6050 -85.4372 295° West 439 505 34,000  Level Chicago Center
Fri 07:07:49 PM 40.6553 -85.5828 295° West 440 506 34,000  Level Chicago Center
Fri 07:08:51 PM 40.7125 -85.7531 294° West 437 503 34,000  Level Chicago Center
Fri 07:09:53 PM 40.7622 -85.8994 294° West 437 503 34,000  Level Chicago Center
Fri 07:10:55 PM 40.8125 -86.0458 294° West 438 504 34,000  Level Chicago Center
Fri 07:11:57 PM 40.8611 -86.1922 294° West 436 502 34,000  Level Chicago Center
Fri 07:12:59 PM 40.9089 -86.3386 293° West 435 501 34,000  Level Chicago Center
Fri 07:14:01 PM 40.9700 -86.5133 295° West 435 501 34,000  Level Chicago Center
Fri 07:15:03 PM 41.0183 -86.6572 294° West 429 494 34,000  Level Chicago Center
Fri 07:16:05 PM 41.0667 -86.8072 293° West 417 480 34,000  Level Chicago Center
Fri 07:17:07 PM 41.1111 -86.9456 293° West 413 475 34,000  Level Chicago Center
Fri 07:18:09 PM 41.1558 -87.0822 294° West 406 467 34,000  Level Chicago Center
Fri 07:19:11 PM 41.1994 -87.2192 293° West 405 466 34,000  Level Chicago Center
Fri 07:20:14 PM 41.2447 -87.3558 294° West 406 467 34,000  Level Chicago Center
Fri 07:21:16 PM 41.2981 -87.5242 293° West 416 479 34,000  Level Chicago Center
Fri 07:22:18 PM 41.3442 -87.6706 293° West 429 494 34,000  Level Chicago Center
Fri 07:23:20 PM 41.3906 -87.8153 293° West 431 496 34,000  Level Chicago Center
Fri 07:24:22 PM 41.4372 -87.9586 294° West 434 499 34,000  Level Chicago Center
Fri 07:25:24 PM 41.4947 -88.1269 295° West 440 506 34,000  Level Chicago Center
Fri 07:26:26 PM 41.5400 -88.2703 293° West 429 494 34,000  Level Chicago Center
Fri 07:27:28 PM 41.5875 -88.4169 293° West 433 498 34,000  Level Chicago Center
Fri 07:28:30 PM 41.6350 -88.5667 293° West 438 504 34,000  Level Chicago Center
Fri 07:29:32 PM 41.6819 -88.7153 293° West 437 503 34,000  Level Chicago Center
Fri 07:30:34 PM 41.7383 -88.8944 293° West 439 505 34,000  Level Chicago Center
Fri 07:31:36 PM 41.7867 -89.0436 294° West 439 505 34,000  Level Chicago Center
Fri 07:32:38 PM 41.8342 -89.1933 293° West 440 506 34,000  Level Chicago Center
Fri 07:33:40 PM 41.8811 -89.3458 293° West 444 511 34,000  Level Chicago Center
Fri 07:34:42 PM 41.9267 -89.4953 292° West 436 502 34,000  Level Chicago Center
Fri 07:35:44 PM 41.9806 -89.6731 292° West 431 496 34,000  Level Chicago Center
Fri 07:36:46 PM 42.0247 -89.8211 292° West 429 494 34,000  Level Chicago Center
Fri 07:37:48 PM 42.0700 -89.9650 293° West 435 501 34,000  Level Chicago Center
Fri 07:38:50 PM 42.1136 -90.1122 292° West 430 495 34,000  Level Chicago Center
Fri 07:39:51 PM 42.1583 -90.2586 292° West 426 490 34,000  Level Chicago Center
Fri 07:40:53 PM 42.2114 -90.4333 292° West 424 488 34,000  Level Chicago Center
Fri 07:41:55 PM 42.2556 -90.5828 292° West 430 495 34,000  Level Chicago Center
Fri 07:42:57 PM 42.2994 -90.7322 292° West 430 495 34,000  Level Chicago Center
Fri 07:43:59 PM 42.3442 -90.8833 292° West 436 502 34,000  Level Chicago Center
Fri 07:45:01 PM 42.3883 -91.0358 291° West 438 504 34,000  Level Chicago Center
Fri 07:46:03 PM 42.4414 -91.2192 291° West 440 506 34,000  Level Chicago Center
Fri 07:47:05 PM 42.4850 -91.3742 291° West 442 509 34,000  Level Chicago Center
Fri 07:48:07 PM 42.5303 -91.5294 292° West 442 509 34,000  Level Chicago Center
Fri 07:49:09 PM 42.5756 -91.6864 291° West 443 510 34,000  Level Chicago Center
Fri 07:50:12 PM 42.6192 -91.8433 291° West 441 507 34,000  Level Chicago Center
Fri 07:51:14 PM 42.6619 -91.9992 291° West 440 506 34,000  Level Chicago Center
Fri 07:52:16 PM 42.7056 -92.1544 291° West 441 507 34,000  Level Chicago Center
Fri 07:53:18 PM 42.7569 -92.3411 291° West 441 507 34,000  Level Chicago Center
Fri 07:54:21 PM 42.7989 -92.4969 290° West 441 507 34,000  Level Chicago Center
Fri 07:55:22 PM 42.8417 -92.6528 291° West 441 507 34,000  Level Chicago Center
Fri 07:56:24 PM 42.8836 -92.8089 290° West 440 506 34,000  Level Chicago Center
Fri 07:57:26 PM 42.9261 -92.9658 290° West 443 510 34,000  Level Chicago Center
Fri 07:58:28 PM 42.9747 -93.1508 290° West 438 504 34,000  Level Chicago Center
Fri 07:59:34 PM 43.0100 -93.3042 288° West 432 497 34,000  Level Chicago Center
Fri 08:00:38 PM 43.0644 -93.4869 292° West 430 495 34,000  Level Minneapolis Center
Fri 08:02:40 PM 43.1364 -93.7922 288° West 428 493 34,000  Level Chicago Center
Fri 08:03:42 PM 43.1753 -93.9406 290° West 423 487 34,000  Level Chicago Center
Fri 08:04:46 PM 43.2203 -94.0903 292° West 421 484 34,000  Level Minneapolis Center
Fri 08:05:48 PM 43.2683 -94.2661 291° West 419 482 34,000  Level Minneapolis Center
Fri 08:06:49 PM 43.3067 -94.4175 289° West 422 486 34,000  Level Minneapolis Center
Fri 08:07:51 PM 43.3450 -94.5672 289° West 418 481 34,000  Level Minneapolis Center
Fri 08:09:05 PM 43.3822 -94.7181 289° West 418 481 34,000  Level Minneapolis Center
Fri 08:10:07 PM 43.4269 -94.8994 289° West 418 481 34,000  Level Minneapolis Center
Fri 08:11:21 PM 43.4650 -95.0503 289° West 417 480 34,000  Level Minneapolis Center
Fri 08:12:23 PM 43.5158 -95.2600 289° West 414 476 34,000  Level Minneapolis Center
Fri 08:13:25 PM 43.5531 -95.4117 289° West 417 480 34,000  Level Minneapolis Center
Fri 08:14:27 PM 43.5886 -95.5608 288° West 412 474 34,000  Level Minneapolis Center
Fri 08:15:41 PM 43.6253 -95.7111 289° West 413 475 34,000  Level Minneapolis Center
Fri 08:16:43 PM 43.6686 -95.8897 289° West 409 471 34,000  Level Minneapolis Center
Fri 08:17:45 PM 43.7047 -96.0406 288° West 411 473 34,000  Level Minneapolis Center
Fri 08:18:47 PM 43.7397 -96.1906 288° West 409 471 34,000  Level Minneapolis Center
Fri 08:19:48 PM 43.7822 -96.3706 288° West 409 471 34,000  Level Minneapolis Center
Fri 08:21:02 PM 43.8167 -96.5217 288° West 409 471 34,000  Level Minneapolis Center
Fri 08:22:04 PM 43.8581 -96.7028 288° West 409 471 34,000  Level Minneapolis Center
Fri 08:23:06 PM 43.8856 -96.8231 288° West 408 470 34,000  Level Minneapolis Center
Fri 08:24:08 PM 43.9261 -97.0028 287° West 407 468 34,000  Level Minneapolis Center
Fri 08:25:10 PM 43.9606 -97.1517 288° West 406 467 34,000  Level Minneapolis Center
Fri 08:26:11 PM 43.9869 -97.2714 287° West 405 466 34,000  Level Minneapolis Center
Fri 08:27:13 PM 44.0269 -97.4506 287° West 405 466 34,000  Level Minneapolis Center
Fri 08:28:15 PM 44.0658 -97.6297 287° West 405 466 34,000  Level Minneapolis Center
Fri 08:29:17 PM 44.0992 -97.7783 287° West 402 463 34,000  Level Minneapolis Center
Fri 08:30:19 PM 44.1319 -97.9272 287° West 402 463 34,000  Level Minneapolis Center
Fri 08:31:21 PM 44.1631 -98.0778 286° West 405 466 34,000  Level Minneapolis Center
Fri 08:32:23 PM 44.1956 -98.2275 287° West 404 465 34,000  Level Minneapolis Center
Fri 08:33:25 PM 44.2278 -98.3769 287° West 403 464 34,000  Level Minneapolis Center
Fri 08:34:26 PM 44.2639 -98.5542 286° West 402 463 34,000  Level Minneapolis Center
Fri 08:35:28 PM 44.2939 -98.7039 286° West 400 460 34,000  Level Minneapolis Center
Fri 08:36:30 PM 44.3253 -98.8514 287° West 397 457 34,000  Level Minneapolis Center
Fri 08:37:32 PM 44.3564 -98.9983 287° West 395 455 34,000  Level Minneapolis Center
Fri 08:38:34 PM 44.3878 -99.1478 286° West 397 457 34,000  Level Minneapolis Center
Fri 08:39:36 PM 44.4164 -99.2981 285° West 398 458 34,000  Level Minneapolis Center
Fri 08:40:38 PM 44.4456 -99.4489 285° West 400 460 34,000  Level Minneapolis Center
Fri 08:41:40 PM 44.4814 -99.6311 285° West 402 463 34,000  Level Minneapolis Center
Fri 08:42:42 PM 44.5114 -99.7833 285° West 404 465 34,000  Level Minneapolis Center
Fri 08:43:55 PM 44.5414 -99.9344 286° West 402 463 34,000  Level Minneapolis Center
Fri 08:44:58 PM 44.5772 -100.1169 285° West 402 463 34,000  Level Minneapolis Center
Fri 08:46:00 PM 44.6075 -100.2686 286° West 402 463 34,000  Level Minneapolis Center
Fri 08:47:02 PM 44.6372 -100.4214 285° West 403 464 34,000  Level Minneapolis Center
Fri 08:48:04 PM 44.6667 -100.5728 285° West 402 463 34,000  Level Minneapolis Center
Fri 08:49:05 PM 44.6892 -100.6947 285° West 401 461 34,000  Level Minneapolis Center
Fri 08:50:08 PM 44.7283 -100.9086 285° West 402 463 34,000  Level Minneapolis Center
Fri 08:51:10 PM 44.7558 -101.0603 284° West 401 461 34,000  Level Minneapolis Center
Fri 08:52:12 PM 44.7833 -101.2103 285° West 399 459 34,000  Level Minneapolis Center
Fri 08:53:14 PM 44.8108 -101.3619 284° West 399 459 34,000  Level Minneapolis Center
Fri 08:54:16 PM 44.8408 -101.5156 285° West 403 464 34,000  Level Minneapolis Center
Fri 08:56:20 PM 44.9011 -101.8536 284° West 404 465 34,000  Level Minneapolis Center
Fri 08:57:22 PM 44.9283 -102.0092 284° West 407 468 34,000  Level Minneapolis Center
Fri 08:58:24 PM 44.9550 -102.1636 284° West 407 468 34,000  Level Minneapolis Center
Fri 08:59:26 PM 44.9817 -102.3183 284° West 406 467 34,000  Level Minneapolis Center
Fri 09:00:29 PM 45.0089 -102.4742 284° West 408 470 34,000  Level Minneapolis Center
Fri 09:01:43 PM 45.0353 -102.6303 284° West 408 470 34,000  Level Minneapolis Center
Fri 09:02:58 PM 45.0725 -102.8489 284° West 408 470 34,000  Level Minneapolis Center
Fri 09:04:00 PM 45.1025 -103.0364 283° West 407 468 34,000  Level Minneapolis Center
Fri 09:05:02 PM 45.1292 -103.1922 284° West 407 468 34,000  Level Minneapolis Center
Fri 09:05:39 PM 45.1444 -103.2942 282° West 409 471 34,000  Level Salt Lake Center
Fri 09:06:40 PM 45.1678 -103.4414 283° West 406 467 34,000  Level Salt Lake Center
Fri 09:07:42 PM 45.1928 -103.5975 283° West 406 467 34,000  Level Salt Lake Center
Fri 09:08:43 PM 45.2169 -103.7508 283° West 401 461 34,000  Level Salt Lake Center
Fri 09:09:45 PM 45.2417 -103.9064 283° West 404 465 34,000  Level Salt Lake Center
Fri 09:10:46 PM 45.2664 -104.0597 283° West 400 460 34,000  Level Salt Lake Center
Fri 09:11:47 PM 45.2900 -104.2158 282° West 404 465 34,000  Level Salt Lake Center
Fri 09:12:49 PM 45.3189 -104.4047 282° West 407 468 34,000  Level Salt Lake Center
Fri 09:13:50 PM 45.3411 -104.5564 282° West 406 467 34,000  Level Salt Lake Center
Fri 09:14:52 PM 45.3625 -104.7075 281° West 407 468 34,000  Level Salt Lake Center
Fri 09:15:53 PM 45.3889 -104.8847 282° West 410 472 34,000  Level Salt Lake Center
Fri 09:16:55 PM 45.4097 -105.0364 281° West 408 470 34,000  Level Salt Lake Center
Fri 09:17:56 PM 45.4358 -105.2139 282° West 410 472 34,000  Level Salt Lake Center
Fri 09:18:58 PM 45.4561 -105.3664 281° West 411 473 34,000  Level Salt Lake Center
Fri 09:19:59 PM 45.4767 -105.5192 281° West 411 473 34,000  Level Salt Lake Center
Fri 09:21:00 PM 45.5019 -105.6986 281° West 413 475 34,000  Level Salt Lake Center
Fri 09:22:02 PM 45.5231 -105.8519 281° West 414 476 34,000  Level Salt Lake Center
Fri 09:23:03 PM 45.5481 -106.0336 281° West 417 480 34,000  Level Salt Lake Center
Fri 09:24:05 PM 45.5683 -106.1872 281° West 414 476 34,000  Level Salt Lake Center
Fri 09:25:06 PM 45.5925 -106.3675 281° West 415 478 34,000  Level Salt Lake Center
Fri 09:26:08 PM 45.6142 -106.5236 281° West 417 480 34,000  Level Salt Lake Center
Fri 09:27:09 PM 45.6350 -106.6800 281° West 419 482 34,000  Level Salt Lake Center
Fri 09:28:10 PM 45.6603 -106.8644 281° West 422 486 34,000  Level Salt Lake Center
Fri 09:29:12 PM 45.6808 -107.0225 281° West 424 488 34,000  Level Salt Lake Center
Fri 09:30:13 PM 45.7064 -107.2081 281° West 427 491 34,000  Level Salt Lake Center
Fri 09:31:14 PM 45.7250 -107.3619 280° West 412 474 34,000  Level Salt Lake Center
Fri 09:32:16 PM 45.7444 -107.5200 280° West 421 484 34,000  Level Salt Lake Center
Fri 09:33:17 PM 45.7669 -107.7050 280° West 424 488 34,000  Level Salt Lake Center
Fri 09:34:19 PM 45.7864 -107.8656 280° West 430 495 34,000 195 Level Salt Lake Center
Fri 09:35:20 PM 45.8078 -108.0483 280° West 422 486 34,400 829 Climbing Salt Lake Center
Fri 09:36:22 PM 45.8261 -108.2067 279° West 422 486 35,700 780 Climbing Salt Lake Center
Fri 09:37:23 PM 45.8472 -108.3900 279° West 421 484 36,000 146 Climbing Salt Lake Center
Fri 09:38:25 PM 45.8656 -108.5469 280° West 418 481 36,000  Level Salt Lake Center
Fri 09:39:26 PM 45.8839 -108.7069 279° West 423 487 36,000  Level Salt Lake Center
Fri 09:40:28 PM 45.9033 -108.8892 279° West 417 480 36,000  Level Salt Lake Center
Fri 09:41:29 PM 45.9206 -109.0472 279° West 419 482 36,000  Level Salt Lake Center
Fri 09:42:31 PM 45.9406 -109.2317 279° West 419 482 36,000  Level Salt Lake Center
Fri 09:43:32 PM 45.9575 -109.3903 279° West 420 483 36,000  Level Salt Lake Center
Fri 09:44:34 PM 45.9778 -109.5756 279° West 421 484 36,000  Level Salt Lake Center
Fri 09:45:35 PM 45.9936 -109.7367 278° West 426 490 36,000  Level Salt Lake Center
Fri 09:46:37 PM 46.0083 -109.8994 277° West 430 495 36,000  Level Salt Lake Center
Fri 09:47:38 PM 46.0275 -110.0853 279° West 424 488 36,000  Level Salt Lake Center
Fri 09:48:40 PM 46.0431 -110.2444 278° West 421 484 36,000  Level Salt Lake Center
Fri 09:49:41 PM 46.0600 -110.4311 278° West 421 484 36,000  Level Salt Lake Center
Fri 09:50:43 PM 46.0747 -110.5889 278° West 417 480 36,000  Level Salt Lake Center
Fri 09:51:44 PM 46.0906 -110.7406 279° West 418 481 36,000  Level Salt Lake Center
Fri 09:52:46 PM 46.1092 -110.9378 278° West 418 481 36,000  Level Salt Lake Center
Fri 09:53:47 PM 46.1239 -111.1019 277° West 417 480 36,000  Level Salt Lake Center
Fri 09:54:48 PM 46.1375 -111.2675 277° West 421 484 36,000  Level Salt Lake Center
Fri 09:55:50 PM 46.1522 -111.4336 277° West 421 484 36,000  Level Salt Lake Center
Fri 09:56:51 PM 46.1658 -111.6000 277° West 421 484 36,000  Level Salt Lake Center
Fri 09:57:53 PM 46.1800 -111.7683 277° West 424 488 36,000  Level Salt Lake Center
Fri 09:58:54 PM 46.1947 -111.9347 277° West 421 484 36,000  Level Salt Lake Center
Fri 09:59:56 PM 46.2111 -112.1367 277° West 422 486 36,000  Level Salt Lake Center
Fri 10:00:57 PM 46.2233 -112.3042 276° West 422 486 36,000  Level Salt Lake Center
Fri 10:01:59 PM 46.2369 -112.4728 277° West 422 486 36,000  Level Salt Lake Center
Fri 10:03:00 PM 46.2494 -112.6411 276° West 423 487 36,000  Level Salt Lake Center
Fri 10:04:02 PM 46.2617 -112.8083 276° West 421 484 36,000  Level Salt Lake Center
Fri 10:05:03 PM 46.2739 -112.9786 276° West 424 488 36,000  Level Salt Lake Center
Fri 10:06:05 PM 46.2894 -113.1447 278° West 419 482 36,000  Level Salt Lake Center
Fri 10:07:06 PM 46.3003 -113.3183 275° West 426 490 36,000  Level Salt Lake Center
Fri 10:08:08 PM 46.3114 -113.4881 275° West 425 489 36,000  Level Salt Lake Center
Fri 10:09:09 PM 46.3236 -113.6564 276° West 422 486 36,000  Level Salt Lake Center
Fri 10:10:11 PM 46.3364 -113.8581 275° West 420 483 36,000  Level Salt Lake Center
Fri 10:11:13 PM 46.3469 -114.0292 275° West 425 489 36,000  Level Salt Lake Center
Fri 10:12:14 PM 46.3569 -114.2006 275° West 427 491 36,000 -49 Level Salt Lake Center
Fri 10:13:16 PM 46.3683 -114.3697 276° West 424 488 35,900  Descending Salt Lake Center
Fri 10:14:17 PM 46.3786 -114.5414 275° West 427 491 36,000 49 Climbing Salt Lake Center
Fri 10:15:19 PM 46.3883 -114.7133 275° West 428 493 36,000  Level Salt Lake Center
Fri 10:16:20 PM 46.3978 -114.8847 275° West 429 494 36,000  Level Salt Lake Center
Fri 10:17:22 PM 46.4069 -115.0572 274° West 429 494 36,000  Level Salt Lake Center
Fri 10:18:23 PM 46.4153 -115.2308 274° West 428 493 36,000  Level Salt Lake Center
Fri 10:19:25 PM 46.4256 -115.4372 274° West 429 494 36,000  Level Salt Lake Center
Fri 10:20:12 PM 46.4306 -115.5403 274° West 428 493 36,000  Level Seattle Center
Fri 10:21:13 PM 46.4417 -115.7483 275° West 430 495 36,000  Level Seattle Center
Fri 10:22:13 PM 46.4511 -115.9208 275° West 431 496 36,000  Level Seattle Center
Fri 10:23:14 PM 46.4589 -116.0944 274° West 431 496 36,000  Level Seattle Center
Fri 10:24:15 PM 46.4667 -116.2689 274° West 432 497 36,000  Level Seattle Center
Fri 10:25:16 PM 46.4736 -116.4400 273° West 427 491 36,000  Level Seattle Center
Fri 10:26:17 PM 46.4811 -116.6158 274° West 433 498 36,000  Level Seattle Center
Fri 10:27:18 PM 46.4875 -116.7897 273° West 433 498 36,000  Level Seattle Center
Fri 10:28:19 PM 46.4939 -116.9636 273° West 432 497 36,000  Level Seattle Center
Fri 10:29:20 PM 46.5006 -117.1331 273° West 425 489 36,000  Level Seattle Center
Fri 10:30:21 PM 46.5064 -117.3053 273° West 426 490 36,000  Level Seattle Center
Fri 10:31:21 PM 46.5103 -117.4753 272° West 424 488 36,000  Level Seattle Center
Fri 10:32:22 PM 46.5158 -117.6433 273° West 420 483 36,000  Level Seattle Center
Fri 10:33:23 PM 46.5197 -117.8086 272° West 414 476 36,000  Level Seattle Center
Fri 10:34:24 PM 46.5253 -117.9761 273° West 414 476 36,000  Level Seattle Center
Fri 10:35:25 PM 46.5297 -118.1447 272° West 417 480 36,000  Level Seattle Center
Fri 10:36:26 PM 46.5347 -118.3133 273° West 417 480 36,000  Level Seattle Center
Fri 10:37:27 PM 46.5508 -118.4786 278° West 414 476 36,000  Level Seattle Center
Fri 10:38:27 PM 46.5758 -118.6733 281° West 410 472 36,000  Level Seattle Center
Fri 10:39:28 PM 46.5953 -118.8361 280° West 410 472 36,000  Level Seattle Center
Fri 10:40:29 PM 46.6111 -118.9789 279° West 414 476 36,000  Level Seattle Center
Fri 10:41:30 PM 46.6300 -119.1433 280° West 414 476 36,000  Level Seattle Center
Fri 10:42:30 PM 46.6508 -119.3408 279° West 415 478 36,000  Level Seattle Center
Fri 10:43:31 PM 46.6697 -119.5061 280° West 417 480 36,000 -393 Level Seattle Center
Fri 10:44:32 PM 46.6864 -119.6703 278° West 413 475 35,200 -1,082 Descending Seattle Center
Fri 10:45:33 PM 46.7039 -119.8353 279° West 414 476 33,800 -1,279 Descending Seattle Center
Fri 10:46:34 PM 46.7206 -120.0039 278° West 421 484 32,600 -1,180 Descending Seattle Center
Fri 10:47:35 PM 46.7381 -120.1731 279° West 423 487 31,400 -1,140 Descending Seattle Center
Fri 10:48:35 PM 46.7542 -120.3483 278° West 435 501 30,300 -1,587 Descending Seattle Center
Fri 10:49:36 PM 46.7694 -120.5206 277° West 433 498 28,200 -2,311 Descending Seattle Center
Fri 10:50:37 PM 46.7853 -120.6925 278° West 429 494 25,600 -2,607 Descending Seattle Center
Fri 10:51:38 PM 46.8019 -120.8608 278° West 423 487 22,900 -2,656 Descending Seattle Center
Fri 10:52:39 PM 46.8394 -121.0169 289° West 414 476 20,200 -2,777 Descending Seattle Center
Fri 10:53:39 PM 46.9056 -121.1542 305° West 414 476 17,300 -2,975 Descending Seattle Center
Fri 10:54:40 PM 46.9667 -121.2944 303° West 410 472 14,200 -2,557 Descending Seattle Center
Fri 10:55:41 PM 47.0406 -121.4453 306° West 379 436 12,100 -1,571 Descending Seattle Center
Fri 10:56:04 PM 47.0606 -121.4825 308° West 325 374 12,000 -98 Descending Seattle Center
Fri 10:56:42 PM 47.0875 -121.5444 303° West 298 343 12,000  Level Seattle Center
Fri 10:57:29 PM 47.1217 -121.6211 303° West 279 321 12,000  Level Seattle Center
Fri 10:58:23 PM 47.1625 -121.7094 304° West 288 331 12,000  Level Seattle Center
Fri 10:58:44 PM 47.1733 -121.7522 290° West 288 331 12,000 -689 Level Seattle Center
Fri 10:59:24 PM 47.1744 -121.8236 271° West 279 321 11,300 -1,300 Descending Seattle Center
Fri 10:59:44 PM 47.1756 -121.8664 272° West 280 322 10,700 -1,636 Descending Seattle Center
Fri 11:00:19 PM 47.1767 -121.9269 272° West 278 320 9,800 -1,475 Descending Seattle Center
Fri 11:00:45 PM 47.1797 -121.9803 275° West 279 321 9,200 -1,279 Descending Seattle Center
Fri 11:01:20 PM 47.1811 -122.0386 272° West 276 318 8,500 -1,279 Descending Seattle Center
Fri 11:01:46 PM 47.1828 -122.0911 273° West 273 314 7,900 -1,574 Descending Seattle Center
Fri 11:02:21 PM 47.1831 -122.1586 270° West 271 312 6,900 -1,475 Descending Seattle Center
Fri 11:02:47 PM 47.1853 -122.2008 274° West 269 310 6,400 -1,377 Descending Seattle Center
Fri 11:03:22 PM 47.1969 -122.2650 285° West 269 310 5,500 -1,300 Descending Seattle Center
Fri 11:03:47 PM 47.2186 -122.2942 318° Northwest 270 311 5,100 -1,164 Descending Seattle Center
Fri 11:04:29 PM 47.2622 -122.3206 338° Northwest 254 292 4,200 -1,574 Descending Seattle Center
Fri 11:04:48 PM 47.2847 -122.3206 360° North 256 295 3,500 -1,700 Descending Seattle Center
Fri 11:05:29 PM 47.3306 -122.3189 North 240 276 2,500 -1,377 Descending Seattle Center
Fri 11:05:49 PM 47.3547 -122.3192 360° North 236 272 2,100 -1,075 Descending Seattle Center
Fri 11:06:36 PM 47.3933 -122.3203 359° North 180 207 1,300 -789 Descending Seattle Center
Fri 11:07:43 PM 47.4347 -122.3172 North 126 145 600 -400 Descending Seattle Center
Fri 11:08:51 PM 47.4742 -122.3183 359° North 134 154 400 -176 Descending Seattle Center

Login

Don't have an account? Register now (free) for customized features, flight alerts, and more!